createdAt,value
2019-03-31T00:01:08.333Z,3.90
2019-03-31T00:03:38.626Z,4.00
2019-03-31T00:06:11.808Z,4.10
2019-03-31T00:08:43.604Z,4.10
2019-03-31T00:11:15.425Z,4.00
2019-03-31T00:13:47.315Z,3.90
2019-03-31T00:16:19.699Z,3.90
2019-03-31T00:18:52.114Z,3.80
2019-03-31T00:21:24.082Z,3.90
2019-03-31T00:23:56.345Z,3.90
2019-03-31T00:26:28.332Z,3.90
2019-03-31T00:29:01.001Z,3.80
2019-03-31T00:31:32.481Z,3.80
2019-03-31T00:34:05.684Z,3.70
2019-03-31T01:03:24.535Z,3.10
2019-03-31T01:05:57.625Z,3.10
2019-03-31T01:08:31.682Z,3.10
2019-03-31T01:11:09.393Z,3.10
2019-03-31T01:13:41.957Z,3.10
2019-03-31T01:16:15.300Z,3.00
2019-03-31T01:18:49.885Z,3.00
2019-03-31T01:21:21.742Z,3.00
2019-03-31T01:23:53.363Z,3.00
2019-03-31T01:26:24.634Z,3.00
2019-03-31T01:28:56.100Z,2.90
2019-03-31T01:31:28.891Z,2.90
2019-03-31T01:34:01.324Z,2.80
2019-03-31T01:36:33.552Z,2.70
2019-03-31T01:39:12.756Z,2.70
2019-03-31T01:41:45.393Z,2.70
2019-03-31T01:44:17.270Z,2.70
2019-03-31T01:46:48.735Z,2.70
2019-03-31T01:49:21.189Z,2.70
2019-03-31T01:51:52.948Z,2.70
2019-03-31T01:54:30.955Z,2.70
2019-03-31T01:57:02.448Z,2.80
2019-03-31T01:59:34.366Z,2.70
2019-03-31T02:02:08.867Z,2.60
2019-03-31T02:04:40.398Z,2.60
2019-03-31T02:07:13.126Z,2.50
2019-03-31T02:09:44.731Z,2.60
2019-03-31T02:12:17.140Z,2.60
2019-03-31T02:14:49.004Z,2.60
2019-03-31T02:17:20.486Z,2.60
2019-03-31T02:19:52.343Z,2.50
2019-03-31T02:22:24.736Z,2.50
2019-03-31T02:24:56.243Z,2.40
2019-03-31T02:27:30.621Z,2.40
2019-03-31T02:30:01.858Z,2.40
2019-03-31T02:32:34.188Z,2.40
2019-03-31T02:35:06.579Z,2.50
2019-03-31T02:37:38.038Z,2.50
2019-03-31T02:40:09.589Z,2.40
2019-03-31T02:42:41.805Z,2.40
2019-03-31T02:45:13.628Z,2.40
2019-03-31T02:47:45.345Z,2.30
2019-03-31T02:50:37.815Z,2.30
2019-03-31T02:53:10.166Z,2.10
2019-03-31T02:55:42.837Z,2.10
2019-03-31T02:58:16.454Z,2.10
2019-03-31T03:00:48.418Z,2.00
2019-03-31T03:03:20.609Z,2.00
2019-03-31T03:05:52.428Z,2.00
2019-03-31T03:08:24.522Z,2.00
2019-03-31T03:10:56.103Z,1.90
2019-03-31T03:13:30.724Z,1.90
2019-03-31T03:16:30.261Z,1.80
2019-03-31T03:19:01.411Z,1.80
2019-03-31T03:21:33.202Z,1.80
2019-03-31T03:24:05.547Z,1.80
2019-03-31T03:26:36.999Z,1.80
2019-03-31T03:29:10.404Z,1.80
2019-03-31T03:31:42.374Z,1.80
2019-03-31T03:34:14.154Z,1.80
2019-03-31T03:36:46.024Z,1.80
2019-03-31T03:39:17.562Z,1.80
2019-03-31T03:41:49.998Z,1.80
2019-03-31T03:44:21.508Z,1.80
2019-03-31T03:46:52.649Z,1.70
2019-03-31T03:49:24.625Z,1.70
2019-03-31T03:51:56.528Z,1.60
2019-03-31T03:54:28.018Z,1.50
2019-03-31T03:56:59.857Z,1.50
2019-03-31T03:59:31.614Z,1.50
2019-03-31T04:02:02.737Z,1.50
2019-03-31T04:04:33.938Z,1.50
2019-03-31T04:07:05.844Z,1.50
2019-03-31T04:09:37.346Z,1.50
2019-03-31T04:12:09.149Z,1.60
2019-03-31T04:14:40.927Z,1.50
2019-03-31T04:17:13.060Z,1.50
2019-03-31T04:19:44.839Z,1.50
2019-03-31T04:22:17.429Z,1.40
2019-03-31T04:24:48.929Z,1.40
2019-03-31T04:27:20.338Z,1.50
2019-03-31T04:29:52.995Z,1.50
2019-03-31T04:32:24.858Z,1.50
2019-03-31T04:34:56.813Z,1.40
2019-03-31T04:37:28.273Z,1.40
2019-03-31T04:39:59.466Z,1.40
2019-03-31T04:42:30.862Z,1.30
2019-03-31T04:45:20.958Z,1.30
2019-03-31T04:47:55.874Z,1.30
2019-03-31T04:50:27.329Z,1.30
2019-03-31T04:52:59.619Z,1.30
2019-03-31T04:55:31.466Z,1.30
2019-03-31T04:58:02.931Z,1.20
2019-03-31T05:00:35.453Z,1.20
2019-03-31T05:03:07.345Z,1.20
2019-03-31T05:05:38.800Z,1.20
2019-03-31T05:08:10.556Z,1.20
2019-03-31T05:10:42.051Z,1.20
2019-03-31T05:13:13.590Z,1.20
2019-03-31T05:15:45.028Z,1.30
2019-03-31T05:18:16.228Z,1.40
2019-03-31T05:20:49.291Z,1.40
2019-03-31T05:23:21.426Z,1.30
2019-03-31T05:25:53.163Z,1.30
2019-03-31T05:28:24.941Z,1.30
2019-03-31T05:30:56.677Z,1.20
2019-03-31T05:33:28.845Z,1.20
2019-03-31T05:36:00.570Z,1.30
2019-03-31T05:38:33.126Z,1.30
2019-03-31T05:41:06.645Z,1.40
2019-03-31T05:43:38.183Z,1.50
2019-03-31T05:46:10.677Z,1.60
2019-03-31T05:48:42.162Z,1.70
2019-03-31T05:51:13.612Z,1.70
2019-03-31T05:53:45.058Z,1.80
2019-03-31T05:56:16.989Z,1.90
2019-03-31T05:58:48.785Z,2.00
2019-03-31T06:01:20.844Z,2.10
2019-03-31T06:03:52.288Z,2.20
2019-03-31T06:06:23.421Z,2.40
2019-03-31T06:09:08.401Z,2.50
2019-03-31T06:11:39.932Z,2.60
2019-03-31T06:14:11.338Z,2.80
2019-03-31T06:16:43.239Z,2.90
2019-03-31T06:19:15.045Z,3.10
2019-03-31T06:21:46.885Z,3.30
2019-03-31T06:24:18.340Z,3.40
2019-03-31T06:26:50.381Z,3.50
2019-03-31T06:29:21.828Z,3.70
2019-03-31T06:31:53.326Z,3.90
2019-03-31T06:34:25.585Z,4.10
2019-03-31T06:36:59.966Z,4.30
2019-03-31T06:39:34.270Z,4.50
2019-03-31T06:42:06.068Z,4.80
2019-03-31T06:44:38.283Z,5.00
2019-03-31T06:47:09.771Z,5.30
2019-03-31T06:49:52.088Z,5.80
2019-03-31T06:52:24.913Z,6.90
2019-03-31T06:54:56.471Z,8.10
2019-03-31T06:57:35.078Z,9.10
2019-03-31T07:00:09.181Z,10.20
2019-03-31T07:02:41.040Z,11.00
2019-03-31T07:05:12.778Z,11.80
2019-03-31T07:07:46.702Z,12.70
2019-03-31T07:10:18.168Z,13.60
2019-03-31T07:12:49.715Z,13.70
2019-03-31T07:15:21.388Z,13.30
2019-03-31T07:17:53.332Z,13.60
2019-03-31T07:20:25.289Z,14.20
2019-03-31T07:22:56.698Z,15.10
2019-03-31T07:25:28.603Z,15.60
2019-03-31T07:28:00.079Z,16.50
2019-03-31T07:30:34.125Z,16.40
2019-03-31T07:33:06.183Z,16.40
2019-03-31T07:35:39.021Z,17.00
2019-03-31T07:38:11.500Z,17.80
2019-03-31T07:40:43.449Z,17.50
2019-03-31T07:43:17.257Z,17.00
2019-03-31T07:45:49.243Z,16.50
2019-03-31T07:48:21.099Z,16.60
2019-03-31T07:50:56.848Z,16.70
2019-03-31T07:53:28.699Z,17.30
2019-03-31T07:56:00.569Z,18.70
2019-03-31T07:59:09.247Z,18.60
2019-03-31T08:01:41.289Z,18.70
2019-03-31T08:04:13.144Z,18.20
2019-03-31T08:06:44.981Z,18.70
2019-03-31T08:09:16.486Z,18.80
2019-03-31T08:11:47.965Z,18.70
2019-03-31T08:14:20.064Z,18.30
2019-03-31T08:16:52.699Z,17.90
2019-03-31T08:19:24.574Z,18.50
2019-03-31T08:21:56.067Z,19.50
2019-03-31T08:24:27.975Z,19.30
2019-03-31T08:26:59.572Z,19.60
2019-03-31T08:29:31.142Z,19.50
2019-03-31T08:32:02.634Z,19.40
2019-03-31T08:34:34.621Z,19.40
2019-03-31T08:37:09.343Z,19.90
2019-03-31T08:39:52.345Z,18.70
2019-03-31T08:42:24.203Z,18.60
2019-03-31T08:44:56.489Z,19.10
2019-03-31T08:47:28.436Z,19.40
2019-03-31T08:50:02.395Z,19.40
2019-03-31T08:52:35.133Z,19.60
2019-03-31T08:55:07.611Z,19.50
2019-03-31T08:57:39.592Z,19.60
2019-03-31T09:00:31.988Z,19.60
2019-03-31T09:03:03.870Z,19.10
2019-03-31T09:05:35.258Z,19.30
2019-03-31T09:08:07.585Z,19.50
2019-03-31T09:10:39.015Z,19.30
2019-03-31T09:13:10.436Z,19.80
2019-03-31T09:15:42.216Z,20.50
2019-03-31T09:18:13.812Z,19.80
2019-03-31T09:20:46.255Z,19.20
2019-03-31T09:23:17.881Z,19.40
2019-03-31T09:25:49.326Z,20.10
2019-03-31T09:28:21.966Z,19.30
2019-03-31T09:30:54.098Z,18.80
2019-03-31T09:33:25.700Z,19.90
2019-03-31T09:35:57.580Z,20.60
2019-03-31T09:38:29.731Z,19.70
2019-03-31T09:41:01.158Z,19.40
2019-03-31T09:43:32.337Z,19.50
2019-03-31T09:46:04.206Z,19.70
2019-03-31T09:48:35.669Z,20.40
2019-03-31T09:51:07.184Z,20.70
2019-03-31T09:53:38.353Z,20.40
2019-03-31T09:56:09.861Z,19.10
2019-03-31T09:58:42.646Z,20.20
2019-03-31T10:01:14.234Z,20.60
2019-03-31T10:03:46.443Z,20.60
2019-03-31T10:06:29.551Z,20.10
2019-03-31T10:08:51.992Z,20.80
2019-03-31T10:11:24.644Z,21.20
2019-03-31T10:13:56.058Z,20.50
2019-03-31T10:16:27.926Z,21.30
2019-03-31T10:19:00.091Z,21.40
2019-03-31T10:21:31.542Z,21.70
2019-03-31T10:24:03.394Z,21.60
2019-03-31T10:26:35.564Z,22.40
2019-03-31T10:29:07.449Z,23.20
2019-03-31T10:31:38.878Z,23.50
2019-03-31T10:34:10.097Z,23.40
2019-03-31T10:36:44.870Z,24.10
2019-03-31T10:39:14.655Z,24.00
2019-03-31T10:41:46.410Z,24.50
2019-03-31T10:44:17.591Z,24.10
2019-03-31T10:46:50.797Z,24.20
2019-03-31T10:49:21.937Z,24.50
2019-03-31T10:51:53.761Z,24.80
2019-03-31T10:54:25.205Z,24.90
2019-03-31T10:56:57.157Z,26.60
2019-03-31T10:59:29.025Z,26.20
2019-03-31T11:02:11.321Z,26.20
2019-03-31T11:04:42.781Z,26.30
2019-03-31T11:07:15.468Z,26.80
2019-03-31T11:09:47.212Z,27.00
2019-03-31T11:12:18.656Z,27.50
2019-03-31T11:14:51.798Z,27.50
2019-03-31T11:17:25.154Z,26.80
2019-03-31T11:19:56.560Z,27.80
2019-03-31T11:22:41.853Z,27.10
2019-03-31T11:25:21.063Z,27.60
2019-03-31T11:27:54.215Z,27.10
2019-03-31T11:30:26.003Z,27.70
2019-03-31T11:32:58.231Z,27.10
2019-03-31T11:35:29.624Z,27.60
2019-03-31T11:38:07.882Z,27.60
2019-03-31T11:40:42.116Z,27.60
2019-03-31T11:43:13.979Z,27.60
2019-03-31T11:45:45.510Z,27.10
2019-03-31T11:48:19.739Z,26.40
2019-03-31T11:50:52.311Z,25.10
2019-03-31T11:53:23.779Z,24.90
2019-03-31T11:55:55.512Z,24.20
2019-03-31T11:58:28.109Z,25.10
2019-03-31T12:00:59.599Z,24.20
2019-03-31T12:03:31.530Z,24.10
2019-03-31T12:06:03.622Z,24.50
2019-03-31T12:08:35.155Z,25.30
2019-03-31T12:11:07.182Z,25.60
2019-03-31T12:13:39.151Z,25.10
2019-03-31T12:16:11.710Z,25.40
2019-03-31T12:18:43.594Z,25.80
2019-03-31T12:21:39.504Z,25.30
2019-03-31T12:24:10.957Z,25.00
2019-03-31T12:26:43.397Z,24.40
2019-03-31T12:29:16.113Z,24.60
2019-03-31T12:31:48.386Z,24.20
2019-03-31T12:34:20.346Z,24.10
2019-03-31T12:36:57.627Z,24.00
2019-03-31T12:39:29.087Z,23.80
2019-03-31T12:42:00.946Z,24.60
2019-03-31T12:44:32.410Z,25.50
2019-03-31T12:47:06.977Z,24.70
2019-03-31T12:49:38.173Z,25.00
2019-03-31T12:52:11.050Z,24.30
2019-03-31T12:54:43.110Z,24.80
2019-03-31T12:57:14.985Z,25.50
2019-03-31T12:59:46.475Z,25.40
2019-03-31T13:02:38.453Z,24.80
2019-03-31T13:05:10.455Z,25.30
2019-03-31T13:07:55.436Z,24.90
2019-03-31T13:10:15.308Z,24.70
2019-03-31T13:12:47.123Z,24.90
2019-03-31T13:15:18.996Z,25.20
2019-03-31T13:17:50.950Z,24.80
2019-03-31T13:20:23.111Z,24.80
2019-03-31T13:22:55.319Z,24.80
2019-03-31T13:25:27.595Z,24.50
2019-03-31T13:27:59.516Z,25.10
2019-03-31T13:30:31.080Z,25.40
2019-03-31T13:33:02.966Z,25.90
2019-03-31T13:35:34.144Z,25.70
2019-03-31T13:38:11.218Z,25.40
2019-03-31T13:40:38.939Z,25.90
2019-03-31T13:43:10.373Z,25.20
2019-03-31T13:45:42.458Z,25.90
2019-03-31T13:48:14.622Z,25.20
2019-03-31T13:51:04.686Z,25.10
2019-03-31T13:53:36.167Z,25.80
2019-03-31T13:56:07.391Z,26.50
2019-03-31T13:58:41.373Z,26.30
2019-03-31T14:01:13.478Z,25.30
2019-03-31T14:03:45.509Z,25.60
2019-03-31T14:06:17.394Z,25.80
2019-03-31T14:08:48.855Z,25.90
2019-03-31T14:11:21.787Z,26.20
2019-03-31T14:13:56.042Z,25.90
2019-03-31T14:16:29.265Z,26.30
2019-03-31T14:19:33.137Z,25.90
2019-03-31T14:22:04.310Z,25.40
2019-03-31T14:24:36.564Z,25.10
2019-03-31T14:27:08.006Z,24.70
2019-03-31T14:29:42.339Z,24.80
2019-03-31T14:32:12.566Z,25.10
2019-03-31T14:34:44.406Z,24.50
2019-03-31T14:37:15.528Z,24.50
2019-03-31T14:39:47.401Z,25.20
2019-03-31T14:42:19.574Z,24.80
2019-03-31T14:44:51.534Z,25.80
2019-03-31T14:47:23.639Z,26.70
2019-03-31T14:49:55.460Z,25.80
2019-03-31T14:52:28.144Z,25.70
2019-03-31T14:54:59.630Z,25.80
2019-03-31T14:57:31.774Z,26.20
2019-03-31T15:00:14.584Z,25.30
2019-03-31T15:02:37.420Z,25.60
2019-03-31T15:05:41.948Z,25.40
2019-03-31T15:08:13.063Z,24.80
2019-03-31T15:10:45.487Z,24.80
2019-03-31T15:13:18.126Z,24.90
2019-03-31T15:15:50.026Z,24.20
2019-03-31T15:18:21.855Z,24.40
2019-03-31T15:20:53.593Z,24.50
2019-03-31T15:23:29.221Z,24.20
2019-03-31T15:25:58.673Z,23.20
2019-03-31T15:28:53.893Z,22.70
2019-03-31T15:31:25.355Z,22.40
2019-03-31T15:33:57.395Z,21.40
2019-03-31T15:36:34.482Z,20.80
2019-03-31T15:39:09.273Z,20.60
2019-03-31T15:41:41.315Z,20.20
2019-03-31T15:44:13.188Z,20.00
2019-03-31T15:47:20.016Z,19.80
2019-03-31T15:49:51.787Z,19.60
2019-03-31T15:52:28.733Z,19.90
2019-03-31T15:55:00.774Z,20.50
2019-03-31T15:57:32.770Z,20.90
2019-03-31T16:00:04.645Z,22.00
2019-03-31T16:02:36.848Z,22.70
2019-03-31T16:05:12.527Z,23.10
2019-03-31T16:07:45.150Z,23.30
2019-03-31T16:10:17.194Z,23.70
2019-03-31T16:12:48.510Z,23.20
2019-03-31T16:15:19.393Z,23.60
2019-03-31T16:17:50.339Z,23.20
2019-03-31T16:20:21.075Z,22.90
2019-03-31T16:22:52.093Z,23.20
2019-03-31T16:25:28.876Z,23.20
2019-03-31T16:28:12.248Z,22.90
2019-03-31T16:30:43.752Z,22.90
2019-03-31T16:33:16.333Z,22.20
2019-03-31T16:35:46.961Z,21.70
2019-03-31T16:38:18.433Z,21.70
2019-03-31T16:40:48.767Z,21.60
2019-03-31T16:43:19.650Z,21.50
2019-03-31T16:45:50.357Z,21.20
2019-03-31T16:48:21.050Z,21.30
2019-03-31T16:50:52.411Z,21.60
2019-03-31T16:53:23.423Z,21.10
2019-03-31T16:55:54.784Z,20.90
2019-03-31T16:58:25.681Z,20.60
2019-03-31T17:00:57.794Z,20.50
2019-03-31T17:03:36.215Z,20.20
2019-03-31T17:06:08.847Z,19.90
2019-03-31T17:08:40.287Z,19.30
2019-03-31T17:11:11.525Z,18.70
2019-03-31T17:13:44.041Z,18.30
2019-03-31T17:16:16.419Z,17.90
2019-03-31T17:18:49.462Z,17.80
2019-03-31T17:21:23.358Z,17.60
2019-03-31T17:23:55.068Z,17.50
2019-03-31T17:26:27.949Z,17.30
2019-03-31T17:29:01.602Z,17.20
2019-03-31T17:31:35.168Z,17.00
2019-03-31T17:34:11.423Z,16.90
2019-03-31T17:36:44.511Z,16.80
2019-03-31T17:39:15.511Z,16.60
2019-03-31T17:41:51.206Z,16.40
2019-03-31T17:44:23.047Z,16.30
2019-03-31T17:46:54.662Z,16.10
2019-03-31T17:49:26.536Z,15.90
2019-03-31T17:52:01.046Z,15.90
2019-03-31T17:54:45.641Z,15.80
2019-03-31T17:57:16.399Z,15.70
2019-03-31T17:59:50.522Z,15.60
2019-03-31T18:02:21.651Z,15.50
2019-03-31T18:04:59.745Z,15.40
2019-03-31T18:07:31.478Z,15.20
2019-03-31T18:10:02.663Z,15.10
2019-03-31T18:12:34.104Z,14.90
2019-03-31T18:15:05.263Z,14.60
2019-03-31T18:17:36.798Z,14.40
2019-03-31T18:20:08.612Z,14.20
2019-03-31T18:22:39.780Z,14.10
2019-03-31T18:25:10.531Z,13.90
2019-03-31T18:27:41.450Z,13.80
2019-03-31T18:30:12.664Z,13.70
2019-03-31T18:32:43.713Z,13.60
2019-03-31T18:35:16.907Z,13.50
2019-03-31T18:37:50.922Z,13.40
2019-03-31T18:40:34.305Z,13.30
2019-03-31T18:42:54.608Z,13.20
2019-03-31T18:45:27.344Z,13.10
2019-03-31T18:48:01.265Z,13.00
2019-03-31T18:50:35.464Z,12.90
2019-03-31T18:53:18.986Z,12.70
2019-03-31T18:56:07.280Z,12.70
2019-03-31T18:59:02.467Z,12.60
2019-03-31T19:01:59.267Z,12.60
2019-03-31T19:04:45.016Z,12.50
2019-03-31T19:07:42.558Z,12.40
2019-03-31T19:10:48.719Z,12.40
2019-03-31T19:13:27.396Z,12.40
2019-03-31T19:16:34.035Z,12.30
2019-03-31T19:19:26.899Z,12.30
2019-03-31T19:22:26.180Z,12.20
2019-03-31T19:25:15.636Z,12.00
2019-03-31T19:28:08.296Z,12.00
2019-03-31T19:31:00.298Z,11.90
2019-03-31T19:34:07.208Z,11.80
2019-03-31T19:36:55.004Z,11.70
2019-03-31T19:39:57.192Z,11.50
2019-03-31T19:42:46.197Z,11.50
2019-03-31T19:46:07.112Z,11.40
2019-03-31T19:49:17.377Z,11.30
2019-03-31T19:51:57.305Z,11.20
2019-03-31T19:54:59.341Z,11.10
2019-03-31T19:58:18.935Z,11.00
2019-03-31T20:01:15.295Z,10.90
2019-03-31T20:04:11.299Z,10.90
2019-03-31T20:07:00.899Z,10.90
2019-03-31T20:09:47.766Z,10.80
2019-03-31T20:13:02.475Z,10.80
2019-03-31T20:15:55.954Z,11.00
2019-03-31T20:18:57.595Z,10.70
2019-03-31T20:21:54.231Z,10.50
2019-03-31T20:24:47.197Z,10.40
2019-03-31T20:27:52.972Z,10.30
2019-03-31T20:30:52.039Z,10.10
2019-03-31T20:33:40.923Z,9.90
2019-03-31T20:36:57.350Z,9.80
2019-03-31T20:40:14.015Z,9.90
2019-03-31T20:43:02.699Z,9.90
2019-03-31T20:45:34.001Z,9.80
2019-03-31T20:48:04.656Z,9.70
2019-03-31T20:50:35.268Z,9.80
2019-03-31T20:53:05.919Z,9.90
2019-03-31T20:55:37.303Z,10.00
2019-03-31T20:58:09.018Z,10.00
2019-03-31T21:00:40.166Z,9.90
2019-03-31T21:03:11.754Z,9.90
2019-03-31T21:05:49.569Z,9.80
2019-03-31T21:08:41.881Z,9.70
2019-03-31T21:11:33.059Z,9.60
2019-03-31T21:14:07.858Z,9.70
2019-03-31T21:16:54.536Z,9.70
2019-03-31T21:19:42.398Z,9.70
2019-03-31T21:22:15.668Z,9.70
2019-03-31T21:24:54.095Z,9.70
2019-03-31T21:27:40.555Z,9.80
2019-03-31T21:30:25.952Z,9.70
2019-03-31T21:33:07.264Z,9.80
2019-03-31T21:35:53.623Z,9.90
2019-03-31T21:38:30.837Z,10.00
2019-03-31T21:41:02.604Z,9.90
2019-03-31T21:43:34.841Z,9.90
2019-03-31T21:46:07.305Z,9.90
2019-03-31T21:48:45.475Z,9.80
2019-03-31T21:51:16.065Z,9.80
2019-03-31T21:53:48.044Z,9.90
2019-03-31T21:56:18.659Z,9.80
2019-03-31T21:58:50.324Z,10.00
2019-03-31T22:01:22.046Z,9.90
2019-03-31T22:03:53.478Z,9.90
2019-03-31T22:06:24.112Z,10.20
2019-03-31T22:08:54.863Z,10.20
2019-03-31T22:11:25.225Z,10.20
2019-03-31T22:13:55.600Z,10.20
2019-03-31T22:16:26.897Z,10.20
2019-03-31T22:18:57.531Z,10.00
2019-03-31T22:21:28.813Z,9.90
2019-03-31T22:24:02.935Z,9.90
2019-03-31T22:26:34.407Z,9.70
2019-03-31T22:29:06.593Z,9.60
2019-03-31T22:31:43.123Z,9.70
2019-03-31T22:34:13.854Z,9.60
2019-03-31T22:36:44.722Z,9.50
2019-03-31T22:39:15.438Z,9.40
2019-03-31T22:41:45.807Z,9.40
2019-03-31T22:44:16.685Z,9.30
2019-03-31T22:46:54.413Z,9.30
2019-03-31T22:49:21.618Z,9.40
2019-03-31T22:51:56.216Z,9.30
2019-03-31T22:54:25.542Z,9.30
2019-03-31T22:56:58.131Z,9.20
2019-03-31T22:59:29.064Z,9.40
2019-03-31T23:02:00.045Z,9.30
2019-03-31T23:04:31.178Z,9.20
2019-03-31T23:07:02.203Z,9.20
2019-03-31T23:09:34.555Z,9.20
2019-03-31T23:12:05.232Z,9.30
2019-03-31T23:14:36.298Z,9.10
2019-03-31T23:17:06.957Z,9.20
2019-03-31T23:19:38.413Z,9.10
2019-03-31T23:22:09.452Z,9.00
2019-03-31T23:24:40.494Z,9.00
2019-03-31T23:27:13.723Z,9.00
2019-03-31T23:29:46.894Z,8.90
2019-03-31T23:32:17.856Z,8.90
2019-03-31T23:34:48.990Z,9.00
2019-03-31T23:37:20.292Z,9.10
2019-03-31T23:39:51.368Z,9.20
2019-03-31T23:42:23.823Z,9.20
2019-03-31T23:44:54.961Z,9.20
2019-03-31T23:47:26.309Z,9.10
2019-03-31T23:49:57.777Z,9.00
2019-03-31T23:52:28.464Z,8.90
2019-03-31T23:54:59.741Z,8.70
2019-03-31T23:57:42.779Z,8.60
